Time;durP1;ratioP1;P1;durP2;ratioP2;P2;SDS_P1;SDS_P2;PMS_P1;PMS_P2;Temp;Humidity;BMP_temperature;BMP_pressure;BME280_temperature;BME280_humidity;BME280_pressure;Samples;Min_cycle;Max_cycle;Signal;HPM_P1;HPM_P2
2021/12/17 00:00:18;;;;;;;68.57;42.85;;;11.50;99.90;;;;;;2072126;28;20801;-70
2021/12/17 00:01:30;;;;;;;67.47;42.53;;;11.60;99.90;;;;;;2071801;28;20089;-70
2021/12/17 00:04:14;;;;;;;66.30;42.25;;;11.60;99.90;;;;;;2070606;28;20105;-70
2021/12/17 00:05:17;;;;;;;68.80;42.38;;;11.50;99.90;;;;;;2065124;28;20042;-70
2021/12/17 00:07:26;;;;;;;67.57;42.05;;;11.50;99.90;;;;;;2072404;28;20041;-70
2021/12/17 00:08:27;;;;;;;65.78;42.85;;;11.60;99.90;;;;;;2072691;28;20026;-70
2021/12/17 00:09:28;;;;;;;68.20;41.50;;;11.60;99.90;;;;;;2072688;28;20045;-70
2021/12/17 00:10:28;;;;;;;67.13;42.05;;;11.60;99.90;;;;;;2070876;28;20105;-70
2021/12/17 00:11:29;;;;;;;61.80;39.63;;;11.50;99.90;;;;;;2072347;28;20033;-70
2021/12/17 00:12:31;;;;;;;59.35;38.55;;;11.60;99.90;;;;;;2072576;28;20809;-70
2021/12/17 00:13:32;;;;;;;60.30;40.33;;;11.60;99.90;;;;;;2071517;28;20033;-70
2021/12/17 00:14:38;;;;;;;59.10;37.88;;;11.60;99.90;;;;;;2072055;28;20053;-70
2021/12/17 00:15:40;;;;;;;58.30;39.40;;;11.60;99.90;;;;;;2072092;28;20166;-70
2021/12/17 00:16:41;;;;;;;65.00;41.50;;;11.60;99.90;;;;;;2071973;28;20086;-70
2021/12/17 00:17:58;;;;;;;65.57;42.20;;;11.60;99.90;;;;;;2072123;28;20021;-70
2021/12/17 00:20:45;;;;;;;67.40;42.03;;;11.60;99.90;;;;;;2072027;28;20072;-70
2021/12/17 00:49:11;;;;;;;62.65;42.20;;;11.50;99.90;;;;;;2071932;28;20037;-70
2021/12/17 00:53:06;;;;;;;62.72;38.88;;;11.40;99.90;;;;;;2059968;28;20061;-70
2021/12/17 00:54:24;;;;;;;62.67;40.75;;;11.40;99.90;;;;;;2068625;28;20033;-70
2021/12/17 00:55:24;;;;;;;63.83;41.25;;;11.50;99.90;;;;;;2071565;28;20081;-70
2021/12/17 00:56:26;;;;;;;64.25;40.47;;;11.40;99.90;;;;;;2074020;28;20067;-70
2021/12/17 00:57:34;;;;;;;68.53;41.47;;;11.50;99.90;;;;;;2078558;28;20152;-70
2021/12/17 00:58:35;;;;;;;71.20;43.30;;;11.50;99.90;;;;;;2071956;28;20041;-70
2021/12/17 00:59:36;;;;;;;65.72;40.22;;;11.50;99.90;;;;;;2071506;28;20045;-70
2021/12/17 01:00:37;;;;;;;69.90;43.03;;;11.50;99.90;;;;;;2071840;28;20033;-70
2021/12/17 01:01:38;;;;;;;72.07;41.55;;;11.50;99.90;;;;;;2071783;28;20057;-70
2021/12/17 01:02:39;;;;;;;70.40;41.70;;;11.50;99.90;;;;;;2071636;28;20069;-70
2021/12/17 01:03:40;;;;;;;68.40;43.10;;;11.50;99.90;;;;;;2070658;28;20806;-70
2021/12/17 01:04:49;;;;;;;74.95;44.70;;;11.50;99.90;;;;;;2071628;28;20351;-70
2021/12/17 01:05:49;;;;;;;72.97;43.80;;;11.50;99.90;;;;;;2071988;28;20022;-70
2021/12/17 01:06:51;;;;;;;78.47;45.42;;;11.50;99.90;;;;;;2071713;28;20036;-70
2021/12/17 01:07:53;;;;;;;66.60;42.65;;;11.50;99.90;;;;;;2071381;28;20114;-70
2021/12/17 01:08:54;;;;;;;79.78;45.35;;;11.50;99.90;;;;;;2071001;28;20493;-70
2021/12/17 01:09:55;;;;;;;71.10;44.15;;;11.50;99.90;;;;;;2067945;28;20404;-70
2021/12/17 01:10:56;;;;;;;79.40;45.38;;;11.50;99.90;;;;;;2070366;28;20097;-70
2021/12/17 01:11:58;;;;;;;86.43;49.50;;;11.50;99.90;;;;;;2071114;28;20028;-70
2021/12/17 01:12:59;;;;;;;81.15;46.97;;;11.50;99.90;;;;;;2071927;28;20076;-70
2021/12/17 01:14:00;;;;;;;79.70;45.92;;;11.50;99.90;;;;;;2071101;28;20038;-70
2021/12/17 01:15:01;;;;;;;76.30;44.60;;;11.50;99.90;;;;;;2071750;28;20038;-70
2021/12/17 01:16:02;;;;;;;86.95;47.35;;;11.50;99.90;;;;;;2071514;28;20025;-70
2021/12/17 01:17:04;;;;;;;78.15;45.88;;;11.50;99.90;;;;;;2071590;28;20117;-70
2021/12/17 01:18:11;;;;;;;77.60;46.22;;;11.50;99.90;;;;;;2071100;28;20030;-70
2021/12/17 01:19:29;;;;;;;81.35;46.22;;;11.50;99.90;;;;;;2071597;28;20045;-70
2021/12/17 01:23:02;;;;;;;72.50;43.40;;;11.50;99.90;;;;;;2063292;28;20042;-70
2021/12/17 01:25:15;;;;;;;74.75;44.63;;;11.50;99.90;;;;;;2071497;28;20607;-70
2021/12/17 01:35:29;;;;;;;83.60;46.00;;;11.40;99.90;;;;;;2069271;28;20061;-70
2021/12/17 01:36:31;;;;;;;76.80;45.15;;;11.50;99.90;;;;;;2071420;28;20094;-70
2021/12/17 01:38:14;;;;;;;78.15;45.15;;;11.50;99.90;;;;;;2071161;28;20117;-70
2021/12/17 01:41:10;;;;;;;85.07;45.50;;;11.50;99.90;;;;;;2071309;28;20026;-70
2021/12/17 01:42:11;;;;;;;90.97;48.42;;;11.50;99.90;;;;;;2071697;28;20034;-70
2021/12/17 01:43:13;;;;;;;97.22;51.38;;;11.50;99.90;;;;;;2071367;28;20022;-70
2021/12/17 01:44:15;;;;;;;108.53;54.58;;;11.40;99.90;;;;;;2070759;28;20029;-70
2021/12/17 01:45:15;;;;;;;98.95;50.63;;;11.50;99.90;;;;;;2071260;28;20022;-70
2021/12/17 01:46:21;;;;;;;94.68;51.30;;;11.50;99.90;;;;;;2071486;28;20049;-70
2021/12/17 01:47:22;;;;;;;100.47;50.88;;;11.40;99.90;;;;;;2071344;28;20018;-70
2021/12/17 01:48:29;;;;;;;96.47;52.03;;;11.40;99.90;;;;;;2071490;28;20470;-70
2021/12/17 01:59:46;;;;;;;86.88;47.10;;;11.40;99.90;;;;;;2069162;28;20458;-70
2021/12/17 02:00:48;;;;;;;88.63;47.17;;;11.40;99.90;;;;;;2071166;28;20376;-70
2021/12/17 02:01:52;;;;;;;99.25;50.80;;;11.50;99.90;;;;;;2070991;28;20033;-70
2021/12/17 02:02:56;;;;;;;82.78;46.08;;;11.50;99.90;;;;;;2071533;28;20458;-70
2021/12/17 02:03:56;;;;;;;85.88;46.92;;;11.50;99.90;;;;;;2070821;28;20037;-70
2021/12/17 02:04:57;;;;;;;80.90;45.38;;;11.50;99.90;;;;;;2071339;28;20044;-70
2021/12/17 02:05:59;;;;;;;81.38;46.88;;;11.50;99.90;;;;;;2071131;28;20022;-70
2021/12/17 02:07:01;;;;;;;86.88;47.50;;;11.50;99.90;;;;;;2070739;28;20030;-70
2021/12/17 02:08:03;;;;;;;82.95;45.83;;;11.50;99.90;;;;;;2070290;28;20030;-70
2021/12/17 02:11:11;;;;;;;82.05;46.10;;;11.50;99.90;;;;;;2066781;28;20030;-70
2021/12/17 02:30:34;;;;;;;83.33;42.47;;;11.40;99.90;;;;;;2078714;28;20034;-70
2021/12/17 02:31:35;;;;;;;79.68;44.00;;;11.40;99.90;;;;;;2067014;28;20696;-70
2021/12/17 02:32:38;;;;;;;80.55;45.15;;;11.40;99.90;;;;;;2070979;28;20329;-70
2021/12/17 02:33:39;;;;;;;83.13;46.78;;;11.40;99.90;;;;;;2070117;28;20026;-70
2021/12/17 02:35:45;;;;;;;94.53;48.45;;;11.40;99.90;;;;;;2071525;28;20160;-70
2021/12/17 02:36:48;;;;;;;89.60;48.17;;;11.50;99.90;;;;;;2070699;28;20037;-70
2021/12/17 02:37:50;;;;;;;93.28;50.00;;;11.50;99.90;;;;;;2071358;28;20030;-70
2021/12/17 02:38:57;;;;;;;91.05;48.88;;;11.50;99.90;;;;;;2070462;28;20040;-70
2021/12/17 02:45:35;;;;;;;72.40;40.10;;;11.40;99.90;;;;;;2071875;28;20030;-70
2021/12/17 02:46:36;;;;;;;83.18;43.10;;;11.40;99.90;;;;;;2072701;28;20080;-70
2021/12/17 02:47:38;;;;;;;70.40;39.03;;;11.40;99.90;;;;;;2073048;28;20014;-70
2021/12/17 02:48:41;;;;;;;81.90;44.60;;;11.50;99.90;;;;;;2072647;28;20018;-70
2021/12/17 02:49:44;;;;;;;83.85;45.63;;;11.50;99.90;;;;;;2072802;28;20036;-70
2021/12/17 02:50:51;;;;;;;87.28;46.83;;;11.50;99.90;;;;;;2072751;28;20037;-70
2021/12/17 02:51:52;;;;;;;93.68;48.75;;;11.50;99.90;;;;;;2072581;28;20485;-70
2021/12/17 02:52:55;;;;;;;86.20;45.63;;;11.50;99.90;;;;;;2080056;28;20026;-70
2021/12/17 02:53:56;;;;;;;88.40;47.03;;;11.50;99.90;;;;;;2079456;28;20017;-70
2021/12/17 02:54:58;;;;;;;91.50;48.15;;;11.50;99.90;;;;;;2071866;28;20025;-70
2021/12/17 02:56:03;;;;;;;77.38;42.13;;;11.50;99.90;;;;;;2072091;28;20093;-70
2021/12/17 02:57:05;;;;;;;80.68;43.53;;;11.50;99.90;;;;;;2079963;28;20029;-70
2021/12/17 02:58:07;;;;;;;86.35;46.63;;;11.50;99.90;;;;;;2075107;28;20022;-70
2021/12/17 02:59:13;;;;;;;89.90;46.85;;;11.50;99.90;;;;;;2072259;28;20101;-70
2021/12/17 03:00:14;;;;;;;89.35;45.97;;;11.50;99.90;;;;;;2072278;28;20034;-70
2021/12/17 03:01:16;;;;;;;87.43;46.72;;;11.50;99.90;;;;;;2073184;28;20056;-70
2021/12/17 03:02:18;;;;;;;94.93;48.80;;;11.50;99.90;;;;;;2073391;28;20072;-70
2021/12/17 03:03:21;;;;;;;87.28;45.75;;;11.50;99.90;;;;;;2073555;28;20026;-70
2021/12/17 03:04:24;;;;;;;90.45;47.67;;;11.50;99.90;;;;;;2073187;28;20026;-70
2021/12/17 03:05:26;;;;;;;95.78;49.30;;;11.50;99.90;;;;;;2073880;28;20026;-70
2021/12/17 03:06:28;;;;;;;86.75;47.42;;;11.50;99.90;;;;;;2073943;28;20010;-70
2021/12/17 03:07:29;;;;;;;99.75;50.03;;;11.50;99.90;;;;;;2073783;28;20076;-70
2021/12/17 03:08:30;;;;;;;79.40;42.65;;;11.50;99.90;;;;;;2074053;28;20533;-70
2021/12/17 03:09:54;;;;;;;96.30;49.63;;;11.50;99.90;;;;;;2073835;28;20030;-70
2021/12/17 03:10:54;;;;;;;99.18;50.17;;;11.50;99.90;;;;;;2072361;28;20057;-70
2021/12/17 03:11:55;;;;;;;89.15;46.85;;;11.50;99.90;;;;;;2073730;28;20355;-70
2021/12/17 03:13:00;;;;;;;91.60;48.60;;;11.50;99.90;;;;;;2073864;28;20447;-70
2021/12/17 03:14:01;;;;;;;92.35;49.58;;;11.50;99.90;;;;;;2072848;28;20418;-70
2021/12/17 03:15:12;;;;;;;91.45;48.10;;;11.50;99.90;;;;;;2073419;28;20022;-70
2021/12/17 03:16:29;;;;;;;91.05;47.92;;;11.50;99.90;;;;;;2065909;28;20031;-70
2021/12/17 03:18:01;;;;;;;99.43;48.83;;;11.50;99.90;;;;;;2071116;28;20014;-70
2021/12/17 03:19:06;;;;;;;;;;;11.50;99.90;;;;;;2073992;28;20104;-70
2021/12/17 03:24:09;;;;;;;104.72;51.50;;;11.40;99.90;;;;;;2073975;28;20017;-70
2021/12/17 03:25:10;;;;;;;107.15;54.30;;;11.40;99.90;;;;;;2079366;28;20022;-70
2021/12/17 03:26:16;;;;;;;107.88;53.28;;;11.40;99.90;;;;;;2072171;28;20149;-70
2021/12/17 03:27:17;;;;;;;111.28;55.00;;;11.40;99.90;;;;;;2072830;28;20524;-70
2021/12/17 03:28:18;;;;;;;110.90;54.13;;;11.40;99.90;;;;;;2072864;28;20382;-70
2021/12/17 03:29:18;;;;;;;103.88;52.22;;;11.40;99.90;;;;;;2073134;28;20030;-70
2021/12/17 03:30:19;;;;;;;106.53;53.63;;;11.40;99.90;;;;;;2073452;28;20037;-70
2021/12/17 03:31:21;;;;;;;109.65;53.30;;;11.40;99.90;;;;;;2073558;28;20034;-70
2021/12/17 03:32:22;;;;;;;108.53;53.50;;;11.50;99.90;;;;;;2068107;28;20383;-70
2021/12/17 03:33:23;;;;;;;123.03;58.50;;;11.40;99.90;;;;;;2073597;28;20034;-70
2021/12/17 03:34:23;;;;;;;123.35;55.53;;;11.40;99.90;;;;;;2073206;28;20026;-70
2021/12/17 03:35:24;;;;;;;113.65;55.45;;;11.40;99.90;;;;;;2073423;28;20048;-70
2021/12/17 03:36:27;;;;;;;116.15;55.10;;;11.40;99.90;;;;;;2071720;28;20030;-70
2021/12/17 03:37:27;;;;;;;107.75;53.95;;;11.40;99.90;;;;;;2073570;28;20180;-70
2021/12/17 03:38:28;;;;;;;108.43;53.60;;;11.40;99.90;;;;;;2073671;28;20014;-70
2021/12/17 03:39:30;;;;;;;114.05;55.10;;;11.40;99.90;;;;;;2072872;28;20089;-70
2021/12/17 03:40:32;;;;;;;115.15;54.17;;;11.50;99.90;;;;;;2073096;28;20045;-70
2021/12/17 03:41:38;;;;;;;106.10;53.63;;;11.50;99.90;;;;;;2073466;28;20509;-70
2021/12/17 03:42:45;;;;;;;111.07;53.72;;;11.50;99.90;;;;;;2073799;28;20442;-70
2021/12/17 03:43:49;;;;;;;97.53;47.63;;;11.50;99.90;;;;;;2072885;28;20037;-70
2021/12/17 03:44:49;;;;;;;94.68;48.80;;;11.50;99.90;;;;;;2073323;28;20030;-70
2021/12/17 03:45:50;;;;;;;99.03;50.15;;;11.50;99.90;;;;;;2073785;28;20022;-70
2021/12/17 03:46:51;;;;;;;99.07;47.63;;;11.50;99.90;;;;;;2073613;28;20505;-70
2021/12/17 03:47:52;;;;;;;101.85;51.00;;;11.50;99.90;;;;;;2073495;28;20030;-70
2021/12/17 03:48:53;;;;;;;101.13;49.88;;;11.50;99.90;;;;;;2073661;28;20148;-70
2021/12/17 03:49:53;;;;;;;100.13;51.55;;;11.50;99.90;;;;;;2073664;28;20026;-70
2021/12/17 03:50:54;;;;;;;110.05;52.10;;;11.50;99.90;;;;;;2073590;28;20029;-70
2021/12/17 03:52:05;;;;;;;96.75;52.38;;;11.50;99.90;;;;;;2073581;28;20080;-70
2021/12/17 03:53:07;;;;;;;102.10;51.15;;;11.50;99.90;;;;;;2073680;28;20072;-70
2021/12/17 03:54:08;;;;;;;107.35;51.22;;;11.50;99.90;;;;;;2072907;28;20030;-70
2021/12/17 03:55:09;;;;;;;103.32;51.40;;;11.50;99.90;;;;;;2073365;28;20044;-70
2021/12/17 03:56:10;;;;;;;100.15;51.60;;;11.50;99.90;;;;;;2072519;28;20092;-70
2021/12/17 03:57:13;;;;;;;103.22;50.22;;;11.50;99.90;;;;;;2073425;28;20033;-70
2021/12/17 03:58:14;;;;;;;97.85;48.35;;;11.50;99.90;;;;;;2073454;28;20025;-70
2021/12/17 03:59:14;;;;;;;98.07;50.63;;;11.50;99.90;;;;;;2073386;28;20018;-70
2021/12/17 04:00:15;;;;;;;101.20;50.67;;;11.50;99.90;;;;;;2073383;28;20470;-70
2021/12/17 04:01:16;;;;;;;107.07;51.55;;;11.50;99.90;;;;;;2073283;28;20073;-70
2021/12/17 04:02:17;;;;;;;104.40;50.40;;;11.50;99.90;;;;;;2072153;28;20022;-70
2021/12/17 04:03:18;;;;;;;107.40;54.15;;;11.50;99.90;;;;;;2072767;28;20030;-70
2021/12/17 04:04:18;;;;;;;107.43;51.42;;;11.50;99.90;;;;;;2071937;28;20029;-70
2021/12/17 04:05:19;;;;;;;108.07;49.92;;;11.50;99.90;;;;;;2072397;28;20470;-70
2021/12/17 04:06:19;;;;;;;113.68;53.33;;;11.50;99.90;;;;;;2072488;28;20058;-70
2021/12/17 04:07:20;;;;;;;105.25;51.35;;;11.50;99.90;;;;;;2071712;28;20041;-70
2021/12/17 04:08:21;;;;;;;120.32;54.65;;;11.50;99.90;;;;;;2071661;28;20034;-70
2021/12/17 04:09:23;;;;;;;119.30;55.20;;;11.50;99.90;;;;;;2071692;28;20097;-70
2021/12/17 04:10:25;;;;;;;110.55;54.08;;;11.50;99.90;;;;;;2067197;28;20019;-70
2021/12/17 04:11:26;;;;;;;108.75;53.20;;;11.50;99.90;;;;;;2068227;28;20485;-70
2021/12/17 04:12:41;;;;;;;107.75;52.53;;;11.50;99.90;;;;;;2071840;28;20029;-70
2021/12/17 04:13:42;;;;;;;109.15;53.13;;;11.50;99.90;;;;;;2071020;28;20390;-70
2021/12/17 04:14:46;;;;;;;125.13;55.65;;;11.50;99.90;;;;;;2071382;28;20133;-70
2021/12/17 04:15:54;;;;;;;121.50;55.35;;;11.50;99.90;;;;;;2072094;28;20381;-70
2021/12/17 04:17:01;;;;;;;123.05;56.45;;;11.50;99.90;;;;;;2079400;28;20722;-70
2021/12/17 04:18:07;;;;;;;128.55;57.63;;;11.50;99.90;;;;;;2077882;28;20029;-70
2021/12/17 04:19:07;;;;;;;115.25;55.38;;;11.50;99.90;;;;;;2072186;28;20026;-70
2021/12/17 04:20:09;;;;;;;116.97;55.65;;;11.50;99.90;;;;;;2072165;28;20062;-70
2021/12/17 04:21:14;;;;;;;122.80;57.65;;;11.50;99.90;;;;;;2071984;28;20466;-70
2021/12/17 04:22:14;;;;;;;125.20;58.13;;;11.50;99.90;;;;;;2072214;28;20037;-70
2021/12/17 04:23:15;;;;;;;129.77;58.65;;;11.50;99.90;;;;;;2072118;28;20026;-70
2021/12/17 04:24:16;;;;;;;134.73;61.28;;;11.50;99.90;;;;;;2067088;28;20093;-70
2021/12/17 04:25:17;;;;;;;132.80;59.00;;;11.50;99.90;;;;;;2078229;28;20069;-70
2021/12/17 04:26:18;;;;;;;137.50;61.35;;;11.50;99.90;;;;;;2078501;28;20075;-70
2021/12/17 04:27:19;;;;;;;146.95;65.80;;;11.50;99.90;;;;;;2071909;28;20413;-70
2021/12/17 04:28:20;;;;;;;144.77;61.55;;;11.50;99.90;;;;;;2071882;28;20030;-70
2021/12/17 04:29:21;;;;;;;143.45;62.35;;;11.50;99.90;;;;;;2071931;28;20129;-70
2021/12/17 04:30:22;;;;;;;136.98;60.35;;;11.50;99.90;;;;;;2072032;28;20095;-70
2021/12/17 04:31:26;;;;;;;132.70;62.20;;;11.50;99.90;;;;;;2071713;28;20524;-70
2021/12/17 04:32:26;;;;;;;143.55;61.60;;;11.50;99.90;;;;;;2072222;28;20021;-70
2021/12/17 04:33:27;;;;;;;132.20;59.55;;;11.50;99.90;;;;;;2070943;28;20112;-70
2021/12/17 04:34:28;;;;;;;128.07;57.22;;;11.50;99.90;;;;;;2076737;28;20054;-70
2021/12/17 04:35:28;;;;;;;133.43;59.25;;;11.50;99.90;;;;;;2075113;28;20022;-70
2021/12/17 04:36:32;;;;;;;110.45;54.47;;;11.50;99.90;;;;;;2076240;28;20437;-70
2021/12/17 04:37:33;;;;;;;125.38;56.63;;;11.50;99.90;;;;;;2071765;28;20064;-70
2021/12/17 04:38:34;;;;;;;136.70;61.70;;;11.50;99.90;;;;;;2072129;28;20018;-70
2021/12/17 04:39:36;;;;;;;136.50;61.85;;;11.50;99.90;;;;;;2071809;28;20029;-70
2021/12/17 04:40:38;;;;;;;131.70;60.00;;;11.50;99.90;;;;;;2071960;28;20067;-70
2021/12/17 04:42:05;;;;;;;128.02;60.15;;;11.50;99.90;;;;;;2071491;28;20030;-70
2021/12/17 04:43:15;;;;;;;129.75;59.53;;;11.50;99.90;;;;;;2071744;28;20121;-70
2021/12/17 04:44:26;;;;;;;137.10;59.13;;;11.50;99.90;;;;;;2071323;28;20057;-70
2021/12/17 04:45:28;;;;;;;128.50;57.90;;;11.50;99.90;;;;;;2071112;28;20421;-70
2021/12/17 04:46:58;;;;;;;127.78;58.00;;;11.50;99.90;;;;;;2070976;28;20081;-70
2021/12/17 04:57:22;;;;;;;96.47;49.00;;;11.40;99.90;;;;;;2066596;28;20515;-70
2021/12/17 04:58:23;;;;;;;95.70;48.17;;;11.40;99.90;;;;;;2063531;28;20026;-70
2021/12/17 04:59:24;;;;;;;99.82;49.70;;;11.40;99.90;;;;;;2067225;28;20021;-70
2021/12/17 05:00:28;;;;;;;94.18;50.10;;;11.40;99.90;;;;;;2071764;28;20382;-70
2021/12/17 05:01:29;;;;;;;91.75;48.20;;;11.50;99.90;;;;;;2071771;28;20455;-70
2021/12/17 05:02:33;;;;;;;100.13;50.17;;;11.50;99.90;;;;;;2071645;28;20037;-70
2021/12/17 05:03:33;;;;;;;96.60;50.95;;;11.50;99.90;;;;;;2071825;28;20374;-70
2021/12/17 05:04:34;;;;;;;97.43;49.65;;;11.50;99.90;;;;;;2071039;28;20022;-70
2021/12/17 05:05:35;;;;;;;101.35;54.30;;;11.50;99.90;;;;;;2070707;28;20022;-70
2021/12/17 05:06:36;;;;;;;94.13;49.30;;;11.50;99.90;;;;;;2071039;28;20022;-70
2021/12/17 05:07:41;;;;;;;96.68;52.85;;;11.50;99.90;;;;;;2071560;28;20053;-70
2021/12/17 05:08:42;;;;;;;94.45;50.83;;;11.50;99.90;;;;;;2071659;28;20025;-70
2021/12/17 05:18:35;;;;;;;87.97;47.15;;;11.50;99.90;;;;;;2071767;28;20026;-70
2021/12/17 05:20:23;;;;;;;81.68;46.20;;;11.40;99.90;;;;;;2071801;28;20010;-70
2021/12/17 05:21:07;;;;;;;78.25;45.05;;;11.50;99.90;;;;;;2070979;28;20037;-70
2021/12/17 05:22:11;;;;;;;84.70;47.45;;;11.40;99.90;;;;;;2071818;28;20022;-70
2021/12/17 05:23:11;;;;;;;86.25;48.05;;;11.40;99.90;;;;;;2071763;28;20069;-70
2021/12/17 05:24:12;;;;;;;88.15;48.00;;;11.40;99.90;;;;;;2071118;28;20041;-70
2021/12/17 05:25:12;;;;;;;89.22;50.08;;;11.50;99.90;;;;;;2071353;28;20484;-70
2021/12/17 05:26:16;;;;;;;84.57;47.45;;;11.50;99.90;;;;;;2071618;28;20113;-70
2021/12/17 05:27:18;;;;;;;84.93;47.22;;;11.50;99.90;;;;;;2071316;28;20030;-70
2021/12/17 05:28:19;;;;;;;79.47;47.60;;;11.50;99.90;;;;;;2071549;28;20065;-70
2021/12/17 05:29:20;;;;;;;82.85;46.67;;;11.50;99.90;;;;;;2071406;28;20036;-70
2021/12/17 05:30:20;;;;;;;87.65;48.60;;;11.50;99.90;;;;;;2071484;28;20058;-70
2021/12/17 05:31:22;;;;;;;84.13;47.67;;;11.50;99.90;;;;;;2071520;28;20034;-70
2021/12/17 05:32:22;;;;;;;79.72;44.72;;;11.50;99.90;;;;;;2071773;28;20034;-70
2021/12/17 05:33:25;;;;;;;85.72;48.20;;;11.50;99.90;;;;;;2071386;28;20067;-70
2021/12/17 05:34:25;;;;;;;86.72;48.55;;;11.50;99.90;;;;;;2071158;28;20029;-70
2021/12/17 05:35:27;;;;;;;86.95;48.78;;;11.50;99.90;;;;;;2071220;28;20026;-70
2021/12/17 05:36:27;;;;;;;82.47;45.97;;;11.50;99.90;;;;;;2071731;28;20056;-70
2021/12/17 05:37:28;;;;;;;80.63;46.05;;;11.40;99.90;;;;;;2071501;28;20030;-70
2021/12/17 05:38:29;;;;;;;79.85;48.13;;;11.50;99.90;;;;;;2071532;28;20018;-70
2021/12/17 05:39:29;;;;;;;86.22;47.72;;;11.50;99.90;;;;;;2071358;28;20025;-70
2021/12/17 05:40:30;;;;;;;82.63;47.35;;;11.40;99.90;;;;;;2071651;28;20528;-70
2021/12/17 05:41:30;;;;;;;83.43;47.50;;;11.50;99.90;;;;;;2071445;28;20025;-70
2021/12/17 05:42:31;;;;;;;85.57;47.13;;;11.50;99.90;;;;;;2063625;28;20029;-70
2021/12/17 05:43:36;;;;;;;89.05;49.45;;;11.40;99.90;;;;;;2069650;28;20068;-70
2021/12/17 05:44:37;;;;;;;84.35;46.70;;;11.40;99.90;;;;;;2071155;28;20076;-70
2021/12/17 05:45:51;;;;;;;85.55;47.13;;;11.40;99.90;;;;;;2071678;28;20033;-70
2021/12/17 05:46:52;;;;;;;89.32;49.17;;;11.40;99.90;;;;;;2071343;28;20034;-70
2021/12/17 05:47:52;;;;;;;85.65;48.97;;;11.40;99.90;;;;;;2071049;28;20038;-70
2021/12/17 05:48:53;;;;;;;88.40;49.13;;;11.40;99.90;;;;;;2071694;28;20034;-70
2021/12/17 05:49:53;;;;;;;94.43;49.47;;;11.40;99.90;;;;;;2071416;28;20386;-70
2021/12/17 05:51:01;;;;;;;91.60;48.90;;;11.40;99.90;;;;;;2071599;28;20033;-70
2021/12/17 05:52:03;;;;;;;85.30;48.45;;;11.40;99.90;;;;;;2071635;28;20030;-70
2021/12/17 05:53:04;;;;;;;92.97;47.25;;;11.40;99.90;;;;;;2071352;28;20030;-70
2021/12/17 05:54:04;;;;;;;86.03;48.60;;;11.40;99.90;;;;;;2070950;28;20037;-70
2021/12/17 05:55:06;;;;;;;93.25;51.90;;;11.40;99.90;;;;;;2071163;28;20026;-70
2021/12/17 05:56:06;;;;;;;89.32;50.10;;;11.40;99.90;;;;;;2071278;28;20053;-70
2021/12/17 05:57:07;;;;;;;92.32;49.17;;;11.40;99.90;;;;;;2070863;28;20036;-70
2021/12/17 05:58:08;;;;;;;90.95;48.10;;;11.40;99.90;;;;;;2073787;28;20054;-70
2021/12/17 05:59:09;;;;;;;90.20;48.05;;;11.40;99.90;;;;;;2078324;28;20032;-70
2021/12/17 06:00:11;;;;;;;90.47;50.00;;;11.40;99.90;;;;;;2079710;28;20025;-70
2021/12/17 06:01:12;;;;;;;89.60;49.08;;;11.40;99.90;;;;;;2074393;28;20021;-70
2021/12/17 06:02:14;;;;;;;88.15;48.45;;;11.40;99.90;;;;;;2071600;28;20104;-70
2021/12/17 06:03:14;;;;;;;84.75;48.85;;;11.40;99.90;;;;;;2070508;28;20025;-70
2021/12/17 06:04:15;;;;;;;88.90;48.00;;;11.40;99.90;;;;;;2070309;28;20120;-70
2021/12/17 06:05:16;;;;;;;90.85;47.17;;;11.40;99.90;;;;;;2070815;28;20068;-70
2021/12/17 06:06:31;;;;;;;81.50;45.08;;;11.40;99.90;;;;;;2071574;28;20120;-70
2021/12/17 06:07:32;;;;;;;82.53;45.55;;;11.40;99.90;;;;;;2071174;28;20021;-70
2021/12/17 06:08:32;;;;;;;76.28;43.38;;;11.40;99.90;;;;;;2071577;28;20105;-70
2021/12/17 06:09:33;;;;;;;84.20;45.22;;;11.40;99.90;;;;;;2071247;28;20022;-70
2021/12/17 06:10:34;;;;;;;73.18;42.78;;;11.40;99.90;;;;;;2067164;28;20113;-70
2021/12/17 06:11:36;;;;;;;72.10;41.40;;;11.30;99.90;;;;;;2071549;28;20064;-70
2021/12/17 06:12:37;;;;;;;78.05;44.25;;;11.40;99.90;;;;;;2071380;28;20030;-70
2021/12/17 06:13:38;;;;;;;75.85;45.50;;;11.30;99.90;;;;;;2071256;28;20021;-70
2021/12/17 06:14:38;;;;;;;70.63;42.75;;;11.30;99.90;;;;;;2070458;28;20474;-70
2021/12/17 06:15:39;;;;;;;79.78;44.10;;;11.30;99.90;;;;;;2071076;28;20449;-70
2021/12/17 06:16:39;;;;;;;74.10;43.30;;;11.30;99.90;;;;;;2070482;28;20010;-70
2021/12/17 06:17:41;;;;;;;77.38;45.03;;;11.30;99.90;;;;;;2070748;28;20395;-70
2021/12/17 06:18:42;;;;;;;71.75;40.55;;;11.30;99.90;;;;;;2070486;28;20022;-70
2021/12/17 06:19:43;;;;;;;79.03;42.92;;;11.30;99.90;;;;;;2071251;28;20101;-70
2021/12/17 06:20:43;;;;;;;73.95;41.58;;;11.30;99.90;;;;;;2073307;28;20018;-70
2021/12/17 06:21:44;;;;;;;76.13;41.20;;;11.40;99.90;;;;;;2072725;28;20513;-70
2021/12/17 06:22:45;;;;;;;72.00;42.25;;;11.40;99.90;;;;;;2073177;28;20038;-70
2021/12/17 06:23:45;;;;;;;75.50;43.17;;;11.30;99.90;;;;;;2073042;28;20454;-70
2021/12/17 06:24:46;;;;;;;67.10;41.45;;;11.40;99.90;;;;;;2072780;28;20393;-70
2021/12/17 06:25:47;;;;;;;69.75;42.33;;;11.30;99.90;;;;;;2072343;28;20026;-70
2021/12/17 06:26:47;;;;;;;70.80;41.88;;;11.30;99.90;;;;;;2072197;28;20534;-70
2021/12/17 06:27:48;;;;;;;74.47;42.28;;;11.40;99.90;;;;;;2072670;28;20034;-70
2021/12/17 06:28:50;;;;;;;70.47;42.90;;;11.40;99.90;;;;;;2067994;28;20070;-70
2021/12/17 06:29:52;;;;;;;71.85;42.33;;;11.30;99.90;;;;;;2064853;28;20088;-70
2021/12/17 06:30:52;;;;;;;73.10;42.38;;;11.40;99.90;;;;;;2073215;28;20026;-70
2021/12/17 06:31:53;;;;;;;71.82;42.08;;;11.40;99.90;;;;;;2072844;28;20490;-70
2021/12/17 06:32:53;;;;;;;72.20;40.95;;;11.40;99.90;;;;;;2073135;28;20033;-70
2021/12/17 06:33:54;;;;;;;68.80;41.42;;;11.30;99.90;;;;;;2072541;28;20037;-70
2021/12/17 06:34:54;;;;;;;67.53;41.50;;;11.40;99.90;;;;;;2068039;28;20030;-70
2021/12/17 06:35:55;;;;;;;65.25;37.70;;;11.40;99.90;;;;;;2066900;28;20037;-70
2021/12/17 06:36:56;;;;;;;64.78;38.53;;;11.30;99.90;;;;;;2068184;28;20030;-70
2021/12/17 06:37:56;;;;;;;62.10;38.42;;;11.40;99.90;;;;;;2068792;28;20057;-70
2021/12/17 06:38:57;;;;;;;63.83;38.58;;;11.30;99.90;;;;;;2068975;28;20474;-70
2021/12/17 06:39:58;;;;;;;64.70;37.78;;;11.40;99.90;;;;;;2070659;28;20014;-70
2021/12/17 06:40:59;;;;;;;59.45;36.17;;;11.30;99.90;;;;;;2071056;28;20458;-70
2021/12/17 06:42:00;;;;;;;57.58;35.33;;;11.30;99.90;;;;;;2069421;28;20825;-70
2021/12/17 06:43:01;;;;;;;61.10;36.72;;;11.40;99.90;;;;;;2068660;28;20115;-70
2021/12/17 06:44:02;;;;;;;55.90;35.83;;;11.30;99.90;;;;;;2070947;28;20081;-70
2021/12/17 06:45:08;;;;;;;51.65;34.00;;;11.40;99.90;;;;;;2071372;28;20030;-70
2021/12/17 06:46:21;;;;;;;55.17;34.88;;;11.40;99.90;;;;;;2069804;28;20028;-70
2021/12/17 06:47:31;;;;;;;53.80;34.40;;;11.30;99.90;;;;;;2069819;28;20607;-70
2021/12/17 06:48:32;;;;;;;55.72;33.78;;;11.30;99.90;;;;;;2024889;28;20030;-70
2021/12/17 06:56:41;;;;;;;59.05;34.20;;;11.30;99.90;;;;;;2076396;28;20049;-70
2021/12/17 06:59:43;;;;;;;55.22;33.17;;;11.20;99.90;;;;;;2067174;28;20041;-70
2021/12/17 07:06:17;;;;;;;56.45;33.17;;;11.20;99.90;;;;;;2067460;28;20026;-70
2021/12/17 07:18:36;;;;;;;50.10;30.60;;;11.10;99.90;;;;;;2066916;28;20269;-70
2021/12/17 07:21:59;;;;;;;51.15;31.10;;;11.10;99.90;;;;;;2074026;28;20113;-70
2021/12/17 07:23:13;;;;;;;56.10;30.52;;;11.10;99.90;;;;;;2070119;28;20025;-70
2021/12/17 07:34:15;;;;;;;34.75;24.08;;;11.00;99.90;;;;;;2067114;28;20030;-70
2021/12/17 07:36:22;;;;;;;40.80;25.17;;;11.00;99.90;;;;;;2068722;28;20057;-70
2021/12/17 07:38:39;;;;;;;41.75;25.40;;;11.00;99.90;;;;;;2065145;28;20113;-70
2021/12/17 07:39:40;;;;;;;38.17;25.48;;;11.00;99.90;;;;;;2072910;28;20086;-70
2021/12/17 07:40:42;;;;;;;40.80;25.17;;;11.00;99.90;;;;;;2071387;28;20462;-70
2021/12/17 07:41:44;;;;;;;38.40;25.08;;;11.00;99.90;;;;;;2066480;28;20024;-70
2021/12/17 07:42:44;;;;;;;39.38;24.70;;;11.00;99.90;;;;;;2065270;28;20033;-70
2021/12/17 07:43:53;;;;;;;41.35;25.60;;;11.10;99.90;;;;;;2066420;28;20029;-70
2021/12/17 07:44:53;;;;;;;39.80;26.00;;;11.10;99.90;;;;;;2068000;28;20145;-70
2021/12/17 07:45:56;;;;;;;38.95;24.40;;;11.10;99.90;;;;;;2065295;28;20110;-70
2021/12/17 07:46:56;;;;;;;35.10;22.83;;;11.10;99.90;;;;;;2069282;28;20132;-70
2021/12/17 07:47:57;;;;;;;35.28;24.15;;;11.10;99.90;;;;;;2065027;28;20022;-70